West Wellow, United Kingdom
Current Conditions -  °F | °C
As of 6:20 AM on Thursday 23 Oct 2014 (Local Time) from EGHI Reporting Station
Broken Clouds Broken Clouds  
Wind Chill: 12°   Ceiling: 3400
Heat Index: 12°   Visibility: 6mi
Dew Point:   Wind: 6mph
Humidity: 72%   Direction: 220°SW
Pressure: 30.15"   Gusts: NA
Location:  50.97°N, 1.58°W
Report Text: EGHI 230520Z 22005KT 9999 BKN034 12/07 Q1021
Loading
Personal Weather Stations






























Interactive Weather Map
Tropical Storm Tracking
New forecast layout! Learn more

10-Day Weather Forecast

Advertisements
Track Severe Weather on mobile